Time,TemperatureF,DewpointF,PressureIn,WindDirection,WindDirectionDegrees,WindSpeedMPH,WindSpeedGustMPH,Humidity,HourlyPrecipIn,Conditions,Clouds,dailyrainin,SoftwareType,DateUTC
2013-03-30 00:00:00,66.2,52.8,30.26,ESE,103,3.0,3.0,62,0.00,,,0.00,Wunderground v.1.15,2013-03-30 04:00:00,
2013-03-30 00:10:00,66.3,52.4,30.26,East,94,4.0,4.0,61,0.00,,,0.00,Wunderground v.1.15,2013-03-30 04:10:00,
2013-03-30 00:20:00,66.2,52.8,30.26,East,81,4.0,4.0,62,0.00,,,0.00,Wunderground v.1.15,2013-03-30 04:20:00,
2013-03-30 00:30:00,66.3,52.4,30.26,SE,132,4.0,4.0,61,0.00,,,0.00,Wunderground v.1.15,2013-03-30 04:30:00,
2013-03-30 00:39:00,66.4,52.5,30.26,East,81,4.0,4.0,61,0.00,,,0.00,Wunderground v.1.15,2013-03-30 04:39:00,
2013-03-30 00:50:00,66.0,52.6,30.25,East,94,3.0,4.0,62,0.00,,,0.00,Wunderground v.1.15,2013-03-30 04:50:00,
2013-03-30 00:59:00,65.8,52.9,30.25,East,96,2.0,3.0,63,0.00,,,0.00,Wunderground v.1.15,2013-03-30 04:59:00,
2013-03-30 01:09:00,65.9,52.5,30.25,ESE,113,3.0,3.0,62,0.00,,,0.00,Wunderground v.1.15,2013-03-30 05:09:00,
2013-03-30 01:19:00,66.1,52.7,30.25,ESE,115,3.0,3.0,62,0.00,,,0.00,Wunderground v.1.15,2013-03-30 05:19:00,
2013-03-30 01:29:00,65.9,52.5,30.25,ENE,78,4.0,4.0,62,0.00,,,0.00,Wunderground v.1.15,2013-03-30 05:29:00,
2013-03-30 01:39:00,66.0,52.2,30.25,ESE,114,4.0,4.0,61,0.00,,,0.00,Wunderground v.1.15,2013-03-30 05:39:00,
2013-03-30 01:49:00,66.0,52.6,30.24,East,96,5.0,5.0,62,0.00,,,0.00,Wunderground v.1.15,2013-03-30 05:49:00,
2013-03-30 01:59:00,66.2,52.8,30.24,East,79,5.0,6.0,62,0.00,,,0.00,Wunderground v.1.15,2013-03-30 05:59:00,
2013-03-30 02:10:00,66.1,52.3,30.24,East,84,5.0,5.0,61,0.00,,,0.00,Wunderground v.1.15,2013-03-30 06:10:00,
2013-03-30 02:20:00,65.9,52.5,30.24,ESE,104,4.0,4.0,62,0.00,,,0.00,Wunderground v.1.15,2013-03-30 06:20:00,
2013-03-30 02:30:00,65.7,52.3,30.23,East,85,3.0,6.0,62,0.00,,,0.00,Wunderground v.1.15,2013-03-30 06:30:00,
2013-03-30 02:40:00,65.6,52.7,30.23,East,94,3.0,6.0,63,0.00,,,0.00,Wunderground v.1.15,2013-03-30 06:40:00,
2013-03-30 02:50:00,65.6,52.2,30.23,East,94,3.0,3.0,62,0.00,,,0.00,Wunderground v.1.15,2013-03-30 06:50:00,
2013-03-30 03:00:00,65.4,52.0,30.23,East,96,2.0,2.0,62,0.00,,,0.00,Wunderground v.1.15,2013-03-30 07:00:00,
2013-03-30 03:10:00,65.3,52.8,30.23,East,87,2.0,2.0,64,0.00,,,0.00,Wunderground v.1.15,2013-03-30 07:10:00,
2013-03-30 03:20:00,65.3,52.4,30.23,East,82,2.0,2.0,63,0.00,,,0.00,Wunderground v.1.15,2013-03-30 07:20:00,
2013-03-30 03:30:00,65.0,52.5,30.23,ESE,112,1.0,1.0,64,0.00,,,0.00,Wunderground v.1.15,2013-03-30 07:30:00,
2013-03-30 03:40:00,64.9,52.4,30.23,East,98,1.0,1.0,64,0.00,,,0.00,Wunderground v.1.15,2013-03-30 07:40:00,
2013-03-30 03:49:00,64.9,52.8,30.23,East,86,2.0,2.0,65,0.00,,,0.00,Wunderground v.1.15,2013-03-30 07:49:00,
2013-03-30 03:59:00,65.0,52.9,30.23,ESE,102,2.0,4.0,65,0.00,,,0.00,Wunderground v.1.15,2013-03-30 07:59:00,
2013-03-30 04:09:00,65.0,52.9,30.23,ESE,103,2.0,2.0,65,0.00,,,0.00,Wunderground v.1.15,2013-03-30 08:09:00,
2013-03-30 04:19:00,64.9,52.8,30.22,East,86,2.0,2.0,65,0.00,,,0.00,Wunderground v.1.15,2013-03-30 08:19:00,
2013-03-30 04:29:00,64.9,52.8,30.22,SE,138,2.0,2.0,65,0.00,,,0.00,Wunderground v.1.15,2013-03-30 08:29:00,
2013-03-30 04:39:00,64.6,52.6,30.22,East,85,1.0,2.0,65,0.00,,,0.00,Wunderground v.1.15,2013-03-30 08:39:00,
2013-03-30 04:49:00,64.6,52.6,30.22,East,89,2.0,2.0,65,0.00,,,0.00,Wunderground v.1.15,2013-03-30 08:49:00,
2013-03-30 04:59:00,64.6,53.0,30.22,East,86,2.0,2.0,66,0.00,,,0.00,Wunderground v.1.15,2013-03-30 08:59:00,
2013-03-30 05:09:00,64.8,52.8,30.22,East,101,2.0,3.0,65,0.00,,,0.00,Wunderground v.1.15,2013-03-30 09:09:00,
2013-03-30 05:19:00,64.8,52.8,30.22,East,86,2.0,3.0,65,0.00,,,0.00,Wunderground v.1.15,2013-03-30 09:19:00,
2013-03-30 05:29:00,64.9,53.3,30.22,East,94,2.0,2.0,66,0.00,,,0.00,Wunderground v.1.15,2013-03-30 09:29:00,
2013-03-30 05:39:00,64.8,53.2,30.23,East,85,2.0,2.0,66,0.00,,,0.00,Wunderground v.1.15,2013-03-30 09:39:00,
2013-03-30 05:49:00,64.6,53.0,30.23,ENE,75,1.0,2.0,66,0.00,,,0.00,Wunderground v.1.15,2013-03-30 09:49:00,
2013-03-30 05:59:00,64.4,52.8,30.23,ESE,111,1.0,3.0,66,0.00,,,0.00,Wunderground v.1.15,2013-03-30 09:59:00,
2013-03-30 06:10:00,64.3,52.7,30.23,East,94,2.0,3.0,66,0.00,,,0.00,Wunderground v.1.15,2013-03-30 10:10:00,
2013-03-30 06:20:00,64.4,52.8,30.23,ESE,103,2.0,2.0,66,0.00,,,0.00,Wunderground v.1.15,2013-03-30 10:20:00,
2013-03-30 06:30:00,64.3,52.7,30.23,East,94,1.0,1.0,66,0.00,,,0.00,Wunderground v.1.15,2013-03-30 10:30:00,
2013-03-30 06:40:00,64.3,52.3,30.23,ENE,77,2.0,2.0,65,0.00,,,0.00,Wunderground v.1.15,2013-03-30 10:40:00,
2013-03-30 06:50:00,64.5,52.5,30.23,ESE,112,2.0,2.0,65,0.00,,,0.00,Wunderground v.1.15,2013-03-30 10:50:00,
2013-03-30 07:00:00,64.7,52.7,30.24,ENE,62,2.0,2.0,65,0.00,,,0.00,Wunderground v.1.15,2013-03-30 11:00:00,
2013-03-30 07:10:00,64.9,52.8,30.24,East,95,2.0,2.0,65,0.00,,,0.00,Wunderground v.1.15,2013-03-30 11:10:00,
2013-03-30 07:20:00,65.0,52.5,30.24,East,87,3.0,4.0,64,0.00,,,0.00,Wunderground v.1.15,2013-03-30 11:20:00,
2013-03-30 07:29:00,65.2,52.3,30.25,ESE,112,3.0,3.0,63,0.00,,,0.00,Wunderground v.1.15,2013-03-30 11:29:00,
2013-03-30 07:39:00,65.4,52.5,30.25,ESE,105,3.0,3.0,63,0.00,,,0.00,Wunderground v.1.15,2013-03-30 11:39:00,
2013-03-30 07:50:00,65.5,52.6,30.25,ESE,120,2.0,2.0,63,0.00,,,0.00,Wunderground v.1.15,2013-03-30 11:50:00,
2013-03-30 07:59:00,65.8,52.4,30.26,East,79,1.0,4.0,62,0.00,,,0.00,Wunderground v.1.15,2013-03-30 11:59:00,
2013-03-30 08:09:00,66.6,53.2,30.26,East,97,2.0,2.0,62,0.00,,,0.00,Wunderground v.1.15,2013-03-30 12:09:00,
2013-03-30 08:20:00,67.1,52.3,30.27,East,92,2.0,2.0,59,0.00,,,0.00,Wunderground v.1.15,2013-03-30 12:20:00,
2013-03-30 08:30:00,68.5,52.7,30.27,ESE,108,1.0,3.0,57,0.00,,,0.00,Wunderground v.1.15,2013-03-30 12:30:00,
2013-03-30 08:39:00,68.5,52.7,30.28,East,84,3.0,3.0,57,0.00,,,0.00,Wunderground v.1.15,2013-03-30 12:39:00,
2013-03-30 08:49:00,69.0,52.2,30.27,East,101,4.0,5.0,55,0.00,,,0.00,Wunderground v.1.15,2013-03-30 12:49:00,
2013-03-30 09:00:00,69.2,52.8,30.27,East,98,4.0,5.0,56,0.00,,,0.00,Wunderground v.1.15,2013-03-30 13:00:00,
2013-03-30 09:09:00,68.9,52.1,30.28,ESE,121,5.0,5.0,55,0.00,,,0.00,Wunderground v.1.15,2013-03-30 13:09:00,
2013-03-30 09:19:00,69.5,52.6,30.28,East,96,4.0,4.0,55,0.00,,,0.00,Wunderground v.1.15,2013-03-30 13:19:00,
2013-03-30 09:30:00,69.6,52.7,30.28,ENE,61,5.0,5.0,55,0.00,,,0.00,Wunderground v.1.15,2013-03-30 13:30:00,
2013-03-30 09:40:00,70.1,52.2,30.28,SE,135,4.0,9.0,53,0.00,,,0.00,Wunderground v.1.15,2013-03-30 13:40:00,
2013-03-30 09:49:00,69.6,51.7,30.27,East,94,7.0,8.0,53,0.00,,,0.00,Wunderground v.1.15,2013-03-30 13:49:00,
2013-03-30 10:00:00,69.8,50.9,30.28,East,92,6.0,6.0,51,0.00,,,0.00,Wunderground v.1.15,2013-03-30 14:00:00,
2013-03-30 10:10:00,69.7,51.3,30.28,East,96,5.0,5.0,52,0.00,,,0.00,Wunderground v.1.15,2013-03-30 14:10:00,
2013-03-30 10:19:00,70.2,52.3,30.28,ENE,65,6.0,6.0,53,0.00,,,0.00,Wunderground v.1.15,2013-03-30 14:19:00,
2013-03-30 10:30:00,70.3,51.3,30.28,East,94,6.0,7.0,51,0.00,,,0.00,Wunderground v.1.15,2013-03-30 14:30:00,
2013-03-30 10:40:00,70.1,50.6,30.28,ENE,74,6.0,6.0,50,0.00,,,0.00,Wunderground v.1.15,2013-03-30 14:40:00,
2013-03-30 10:49:00,70.5,49.9,30.28,ENE,67,6.0,7.0,48,0.00,,,0.00,Wunderground v.1.15,2013-03-30 14:49:00,
2013-03-30 11:00:00,70.5,49.9,30.29,SE,127,6.0,6.0,48,0.00,,,0.00,Wunderground v.1.15,2013-03-30 15:00:00,
2013-03-30 11:10:00,70.9,50.8,30.28,ESE,108,5.0,5.0,49,0.00,,,0.00,Wunderground v.1.15,2013-03-30 15:10:00,
2013-03-30 11:19:00,70.8,50.1,30.28,East,86,6.0,6.0,48,0.00,,,0.00,Wunderground v.1.15,2013-03-30 15:19:00,
2013-03-30 11:30:00,70.5,49.9,30.28,East,82,6.0,6.0,48,0.00,,,0.00,Wunderground v.1.15,2013-03-30 15:30:00,
2013-03-30 11:40:00,71.3,51.1,30.28,East,94,5.0,5.0,49,0.00,,,0.00,Wunderground v.1.15,2013-03-30 15:40:00,
2013-03-30 11:50:00,71.1,50.4,30.28,East,94,6.0,8.0,48,0.00,,,0.00,Wunderground v.1.15,2013-03-30 15:50:00,
2013-03-30 12:00:00,71.3,50.0,30.28,ESE,103,6.0,6.0,47,0.00,,,0.00,Wunderground v.1.15,2013-03-30 16:00:00,
2013-03-30 12:09:00,71.4,50.1,30.28,ENE,74,6.0,6.0,47,0.00,,,0.00,Wunderground v.1.15,2013-03-30 16:09:00,
2013-03-30 12:20:00,71.7,49.8,30.28,ENE,74,5.0,5.0,46,0.00,,,0.00,Wunderground v.1.15,2013-03-30 16:20:00,
2013-03-30 12:29:00,71.9,50.0,30.28,ENE,60,5.0,5.0,46,0.00,,,0.00,Wunderground v.1.15,2013-03-30 16:29:00,
2013-03-30 12:39:00,71.8,50.5,30.27,ENE,61,6.0,7.0,47,0.00,,,0.00,Wunderground v.1.15,2013-03-30 16:39:00,
2013-03-30 12:50:00,71.7,50.4,30.27,ESE,119,5.0,5.0,47,0.00,,,0.00,Wunderground v.1.15,2013-03-30 16:50:00,
2013-03-30 13:00:00,71.7,51.0,30.26,NE,48,6.0,6.0,48,0.00,,,0.00,Wunderground v.1.15,2013-03-30 17:00:00,
2013-03-30 13:09:00,71.8,52.7,30.26,ENE,73,7.0,7.0,51,0.00,,,0.00,Wunderground v.1.15,2013-03-30 17:09:00,
2013-03-30 13:19:00,71.9,52.8,30.26,ESE,108,6.0,6.0,51,0.00,,,0.00,Wunderground v.1.15,2013-03-30 17:19:00,
2013-03-30 13:30:00,72.0,52.9,30.25,SE,128,6.0,6.0,51,0.00,,,0.00,Wunderground v.1.15,2013-03-30 17:30:00,
2013-03-30 13:40:00,72.2,54.1,30.25,ENE,57,5.0,5.0,53,0.00,,,0.00,Wunderground v.1.15,2013-03-30 17:40:00,
2013-03-30 13:49:00,72.1,54.5,30.25,ENE,70,7.0,7.0,54,0.00,,,0.00,Wunderground v.1.15,2013-03-30 17:49:00,
2013-03-30 13:59:00,72.8,53.1,30.24,ESE,105,5.0,5.0,50,0.00,,,0.00,Wunderground v.1.15,2013-03-30 17:59:00,
2013-03-30 14:10:00,72.6,54.0,30.24,East,84,6.0,6.0,52,0.00,,,0.00,Wunderground v.1.15,2013-03-30 18:10:00,
2013-03-30 14:19:00,72.5,53.9,30.23,East,94,6.0,6.0,52,0.00,,,0.00,Wunderground v.1.15,2013-03-30 18:19:00,
2013-03-30 14:29:00,72.6,52.9,30.22,ENE,65,6.0,9.0,50,0.00,,,0.00,Wunderground v.1.15,2013-03-30 18:29:00,
2013-03-30 14:40:00,72.9,53.2,30.22,East,100,6.0,10.0,50,0.00,,,0.00,Wunderground v.1.15,2013-03-30 18:40:00,
2013-03-30 14:49:00,72.4,52.7,30.22,ENE,71,7.0,9.0,50,0.00,,,0.00,Wunderground v.1.15,2013-03-30 18:49:00,
2013-03-30 14:59:00,72.1,53.0,30.21,East,82,6.0,6.0,51,0.00,,,0.00,Wunderground v.1.15,2013-03-30 18:59:00,
2013-03-30 15:10:00,73.3,53.0,30.21,ENE,74,5.0,6.0,49,0.00,,,0.00,Wunderground v.1.15,2013-03-30 19:10:00,
2013-03-30 15:19:00,72.5,51.7,30.20,ESE,108,6.0,7.0,48,0.00,,,0.00,Wunderground v.1.15,2013-03-30 19:19:00,
2013-03-30 15:29:00,73.0,51.6,30.20,SSE,155,5.0,5.0,47,0.00,,,0.00,Wunderground v.1.15,2013-03-30 19:29:00,
2013-03-30 15:40:00,72.7,51.9,30.20,ESE,114,6.0,10.0,48,0.00,,,0.00,Wunderground v.1.15,2013-03-30 19:40:00,
2013-03-30 15:50:00,72.5,50.5,30.19,SE,124,7.0,7.0,46,0.00,,,0.00,Wunderground v.1.15,2013-03-30 19:50:00,
2013-03-30 15:59:00,72.3,51.5,30.19,ESE,106,6.0,9.0,48,0.00,,,0.00,Wunderground v.1.15,2013-03-30 19:59:00,
2013-03-30 16:10:00,72.4,51.6,30.19,East,99,6.0,6.0,48,0.00,,,0.00,Wunderground v.1.15,2013-03-30 20:10:00,
2013-03-30 16:20:00,72.1,51.3,30.19,East,94,7.0,8.0,48,0.00,,,0.00,Wunderground v.1.15,2013-03-30 20:20:00,
2013-03-30 16:29:00,72.0,51.8,30.19,ESE,108,6.0,6.0,49,0.00,,,0.00,Wunderground v.1.15,2013-03-30 20:29:00,
2013-03-30 16:40:00,72.8,52.0,30.19,East,89,5.0,5.0,48,0.00,,,0.00,Wunderground v.1.15,2013-03-30 20:40:00,
2013-03-30 16:49:00,72.3,52.1,30.19,East,91,5.0,8.0,49,0.00,,,0.00,Wunderground v.1.15,2013-03-30 20:49:00,
2013-03-30 16:59:00,72.3,52.6,30.19,East,96,4.0,4.0,50,0.00,,,0.00,Wunderground v.1.15,2013-03-30 20:59:00,
2013-03-30 17:10:00,72.7,53.0,30.18,ENE,77,5.0,5.0,50,0.00,,,0.00,Wunderground v.1.15,2013-03-30 21:10:00,
2013-03-30 17:19:00,73.0,52.1,30.18,East,88,3.0,5.0,48,0.00,,,0.00,Wunderground v.1.15,2013-03-30 21:19:00,
2013-03-30 17:29:00,72.0,52.3,30.19,ESE,117,5.0,5.0,50,0.00,,,0.00,Wunderground v.1.15,2013-03-30 21:29:00,
2013-03-30 17:40:00,71.9,52.2,30.19,ESE,104,4.0,4.0,50,0.00,,,0.00,Wunderground v.1.15,2013-03-30 21:40:00,
2013-03-30 17:49:00,71.9,52.8,30.19,SE,127,4.0,4.0,51,0.00,,,0.00,Wunderground v.1.15,2013-03-30 21:49:00,
2013-03-30 18:00:00,71.5,52.4,30.19,SE,124,4.0,4.0,51,0.00,,,0.00,Wunderground v.1.15,2013-03-30 22:00:00,
2013-03-30 18:10:00,71.8,52.7,30.19,East,79,4.0,6.0,51,0.00,,,0.00,Wunderground v.1.15,2013-03-30 22:10:00,
2013-03-30 18:19:00,71.1,53.1,30.19,East,92,4.0,4.0,53,0.00,,,0.00,Wunderground v.1.15,2013-03-30 22:19:00,
2013-03-30 18:29:00,71.3,52.8,30.19,East,98,4.0,5.0,52,0.00,,,0.00,Wunderground v.1.15,2013-03-30 22:29:00,
2013-03-30 18:40:00,71.1,53.1,30.19,SSE,149,4.0,4.0,53,0.00,,,0.00,Wunderground v.1.15,2013-03-30 22:40:00,
2013-03-30 18:49:00,70.7,52.7,30.19,SE,124,4.0,5.0,53,0.00,,,0.00,Wunderground v.1.15,2013-03-30 22:49:00,
2013-03-30 19:00:00,70.7,52.7,30.19,ESE,122,3.0,3.0,53,0.00,,,0.00,Wunderground v.1.15,2013-03-30 23:00:00,
2013-03-30 19:09:00,70.5,53.1,30.19,East,100,4.0,4.0,54,0.00,,,0.00,Wunderground v.1.15,2013-03-30 23:09:00,
2013-03-30 19:19:00,70.2,53.3,30.19,East,91,3.0,3.0,55,0.00,,,0.00,Wunderground v.1.15,2013-03-30 23:19:00,
2013-03-30 19:30:00,69.6,53.7,30.18,East,85,4.0,5.0,57,0.00,,,0.00,Wunderground v.1.15,2013-03-30 23:30:00,
2013-03-30 19:39:00,69.2,53.3,30.19,ESE,120,4.0,4.0,57,0.00,,,0.00,Wunderground v.1.15,2013-03-30 23:39:00,
2013-03-30 19:49:00,69.0,53.6,30.19,SE,136,3.0,4.0,58,0.00,,,0.00,Wunderground v.1.15,2013-03-30 23:49:00,
2013-03-30 20:00:00,68.8,53.9,30.19,East,94,3.0,3.0,59,0.00,,,0.00,Wunderground v.1.15,2013-03-31 00:00:00,
2013-03-30 20:09:00,68.8,54.3,30.19,ESE,118,2.0,3.0,60,0.00,,,0.00,Wunderground v.1.15,2013-03-31 00:09:00,
2013-03-30 20:20:00,68.6,54.6,30.19,SSE,155,3.0,5.0,61,0.00,,,0.00,Wunderground v.1.15,2013-03-31 00:20:00,
2013-03-30 20:29:00,68.7,54.7,30.19,East,83,3.0,3.0,61,0.00,,,0.00,Wunderground v.1.15,2013-03-31 00:29:00,
2013-03-30 20:39:00,68.6,55.1,30.20,East,91,2.0,3.0,62,0.00,,,0.00,Wunderground v.1.15,2013-03-31 00:39:00,
2013-03-30 20:50:00,68.6,55.1,30.20,East,81,3.0,3.0,62,0.00,,,0.00,Wunderground v.1.15,2013-03-31 00:50:00,
2013-03-30 20:59:00,68.6,55.1,30.20,East,86,4.0,4.0,62,0.00,,,0.00,Wunderground v.1.15,2013-03-31 00:59:00,
2013-03-30 21:09:00,68.6,55.1,30.20,East,85,3.0,6.0,62,0.00,,,0.00,Wunderground v.1.15,2013-03-31 01:09:00,
2013-03-30 21:20:00,68.6,55.1,30.20,ESE,116,3.0,3.0,62,0.00,,,0.00,Wunderground v.1.15,2013-03-31 01:20:00,
2013-03-30 21:29:00,68.3,54.8,30.20,ESE,114,2.0,2.0,62,0.00,,,0.00,Wunderground v.1.15,2013-03-31 01:29:00,
2013-03-30 21:40:00,68.5,55.0,30.20,ESE,121,4.0,4.0,62,0.00,,,0.00,Wunderground v.1.15,2013-03-31 01:40:00,
2013-03-30 21:50:00,68.6,55.1,30.21,East,99,4.0,4.0,62,0.00,,,0.00,Wunderground v.1.15,2013-03-31 01:50:00,
2013-03-30 21:59:00,68.5,55.4,30.21,East,99,3.0,3.0,63,0.00,,,0.00,Wunderground v.1.15,2013-03-31 01:59:00,
2013-03-30 22:10:00,68.7,55.6,30.21,ESE,108,4.0,4.0,63,0.00,,,0.00,Wunderground v.1.15,2013-03-31 02:10:00,
2013-03-30 22:20:00,68.6,55.5,30.22,East,94,3.0,4.0,63,0.00,,,0.00,Wunderground v.1.15,2013-03-31 02:20:00,
2013-03-30 22:29:00,68.7,55.2,30.22,East,99,4.0,4.0,62,0.00,,,0.00,Wunderground v.1.15,2013-03-31 02:29:00,
2013-03-30 22:40:00,68.6,55.9,30.22,ESE,105,4.0,6.0,64,0.00,,,0.00,Wunderground v.1.15,2013-03-31 02:40:00,
2013-03-30 22:50:00,68.7,56.0,30.22,ESE,115,4.0,8.0,64,0.00,,,0.00,Wunderground v.1.15,2013-03-31 02:50:00,
2013-03-30 22:59:00,68.8,55.7,30.22,SSE,162,5.0,5.0,63,0.00,,,0.00,Wunderground v.1.15,2013-03-31 02:59:00,
2013-03-30 23:10:00,68.8,55.7,30.22,SE,124,4.0,4.0,63,0.00,,,0.00,Wunderground v.1.15,2013-03-31 03:10:00,
2013-03-30 23:19:00,68.7,55.6,30.22,ESE,113,4.0,6.0,63,0.00,,,0.00,Wunderground v.1.15,2013-03-31 03:19:00,
2013-03-30 23:30:00,68.7,56.0,30.22,SE,132,5.0,6.0,64,0.00,,,0.00,Wunderground v.1.15,2013-03-31 03:30:00,
2013-03-30 23:40:00,68.7,55.6,30.22,ESE,112,5.0,5.0,63,0.00,,,0.00,Wunderground v.1.15,2013-03-31 03:40:00,
2013-03-30 23:49:00,68.7,55.6,30.22,ESE,118,5.0,5.0,63,0.00,,,0.00,Wunderground v.1.15,2013-03-31 03:49:00,